Time;durP1;ratioP1;P1;durP2;ratioP2;P2;SDS_P1;SDS_P2;PMS_P1;PMS_P2;Temp;Humidity;BMP_temperature;BMP_pressure;BME280_temperature;BME280_humidity;BME280_pressure;Samples;Min_cycle;Max_cycle;Signal;HPM_P1;HPM_P2
2023/03/07 00:00:40;;;;;;;58.65;29.20;;;;;;;-146.25;100.00;52463.50;2104917;28;37872;-71
2023/03/07 00:01:42;;;;;;;53.97;27.58;;;;;;;-146.25;100.00;52427.00;2105614;28;32090;-71
2023/03/07 00:02:44;;;;;;;55.97;29.27;;;;;;;-146.25;100.00;52449.31;2104950;28;35087;-71
2023/03/07 00:03:48;;;;;;;55.58;30.50;;;;;;;-146.25;100.00;52424.97;2105067;28;36952;-71
2023/03/07 00:04:50;;;;;;;51.83;28.10;;;;;;;-146.25;100.00;52402.66;2104390;28;33227;-71
2023/03/07 00:06:07;;;;;;;57.92;29.38;;;;;;;-146.25;100.00;52427.00;2105546;28;37001;-71
2023/03/07 00:07:09;;;;;;;54.00;27.45;;;;;;;-146.25;100.00;52435.09;2105005;28;36246;-71
2023/03/07 00:08:11;;;;;;;52.92;27.52;;;;;;;-146.25;100.00;52445.25;2105830;28;20047;-71
2023/03/07 00:09:16;;;;;;;53.00;28.08;;;;;;;-146.25;100.00;52400.63;2104710;28;38451;-72
2023/03/07 00:10:18;;;;;;;56.00;28.05;;;;;;;-146.25;100.00;52424.97;2104822;28;34504;-71
2023/03/07 00:11:20;;;;;;;52.65;27.42;;;;;;;-146.25;100.00;52477.69;2105088;28;37947;-71
2023/03/07 00:12:25;;;;;;;54.03;28.08;;;;;;;-146.25;100.00;52445.25;2106052;28;20102;-71
2023/03/07 00:13:30;;;;;;;50.88;26.10;;;;;;;-146.25;100.00;52427.00;2105492;28;22869;-72
2023/03/07 00:14:32;;;;;;;51.78;26.30;;;;;;;-146.25;100.00;52451.31;2097550;28;30916;-72
2023/03/07 00:15:36;;;;;;;51.17;27.75;;;;;;;-146.25;100.00;52451.31;2096467;28;32833;-71
2023/03/07 00:16:38;;;;;;;46.60;26.13;;;;;;;-146.25;100.00;52416.84;2087894;28;35683;-72
2023/03/07 00:17:40;;;;;;;46.53;25.05;;;;;;;-146.25;100.00;52424.97;2089264;28;20089;-72
2023/03/07 00:18:42;;;;;;;50.50;27.45;;;;;;;-146.25;100.00;52435.09;2103247;28;34997;-72
2023/03/07 00:19:47;;;;;;;49.50;27.17;;;;;;;-146.25;100.00;52453.34;2104421;28;34504;-71
2023/03/07 00:20:59;;;;;;;49.03;26.20;;;;;;;-146.25;100.00;52441.19;2104888;28;34299;-71
2023/03/07 00:22:01;;;;;;;47.28;25.63;;;;;;;-146.25;100.00;52433.06;2105158;28;37264;-71
2023/03/07 00:23:03;;;;;;;46.15;24.95;;;;;;;-146.25;100.00;52431.06;2104763;28;31854;-71
2023/03/07 00:24:08;;;;;;;47.63;25.40;;;;;;;-146.25;100.00;52416.84;2105046;28;20139;-71
2023/03/07 00:25:10;;;;;;;45.28;25.02;;;;;;;-146.25;100.00;52441.19;2104706;28;38693;-71
2023/03/07 00:26:19;;;;;;;47.95;24.80;;;;;;;-146.25;100.00;52469.56;2105085;28;38493;-72
2023/03/07 00:27:23;;;;;;;46.15;25.67;;;;;;;-146.25;100.00;52445.25;2096715;28;20173;-71
2023/03/07 00:28:25;;;;;;;46.90;24.55;;;;;;;-146.25;100.00;52477.69;2096150;28;21811;-72
2023/03/07 00:29:27;;;;;;;44.92;23.80;;;;;;;-146.25;100.00;52412.81;2096653;28;28999;-71
2023/03/07 00:30:29;;;;;;;45.08;24.63;;;;;;;-146.25;100.00;52433.06;2095681;28;32396;-71
2023/03/07 00:31:31;;;;;;;45.35;24.02;;;;;;;-146.25;100.00;52449.31;2087910;28;26369;-71
2023/03/07 00:32:32;;;;;;;44.78;24.67;;;;;;;-146.25;100.00;52437.13;2096233;28;30383;-72
2023/03/07 00:33:37;;;;;;;43.95;23.88;;;;;;;-146.25;100.00;52420.91;2105989;28;20892;-71
2023/03/07 00:34:39;;;;;;;43.00;23.13;;;;;;;-146.25;100.00;52459.44;2105230;28;20064;-72
2023/03/07 00:35:41;;;;;;;41.28;22.30;;;;;;;-146.25;100.00;52412.81;2105416;28;27535;-71
2023/03/07 00:36:43;;;;;;;40.15;21.95;;;;;;;-146.25;100.00;52445.25;2105045;28;27213;-72
2023/03/07 00:37:44;;;;;;;45.22;24.23;;;;;;;-146.25;100.00;52429.03;2105583;28;20036;-72
2023/03/07 00:38:50;;;;;;;40.58;22.23;;;;;;;-146.25;100.00;52416.84;2096525;28;20175;-72
2023/03/07 00:39:52;;;;;;;39.25;21.42;;;;;;;-146.25;100.00;52424.97;2097408;28;20048;-72
2023/03/07 00:41:02;;;;;;;39.92;21.13;;;;;;;-146.25;100.00;52453.34;2105047;28;35168;-71
2023/03/07 00:42:03;;;;;;;37.28;20.75;;;;;;;-146.25;100.00;52435.09;2096534;28;20137;-72
2023/03/07 00:43:07;;;;;;;37.42;21.60;;;;;;;-146.25;100.00;52410.78;2096763;28;20049;-71
2023/03/07 00:44:08;;;;;;;39.10;22.05;;;;;;;-146.25;100.00;52445.25;2105246;28;32251;-71
2023/03/07 00:45:12;;;;;;;40.38;22.33;;;;;;;-146.25;100.00;52437.13;2096439;28;20617;-71
2023/03/07 00:46:16;;;;;;;39.45;21.77;;;;;;;-146.25;100.00;52429.03;2088119;28;22853;-71
2023/03/07 00:47:18;;;;;;;36.58;21.73;;;;;;;-146.25;100.00;52420.91;2087979;28;32567;-71
2023/03/07 00:48:21;;;;;;;40.85;22.60;;;;;;;-146.25;100.00;52424.97;2088079;28;20160;-71
2023/03/07 00:49:24;;;;;;;36.53;20.70;;;;;;;-146.25;100.00;52469.56;2096201;28;20118;-71
2023/03/07 00:50:26;;;;;;;35.00;20.95;;;;;;;-146.25;100.00;52445.25;2096429;28;20045;-71
2023/03/07 00:51:30;;;;;;;37.72;20.92;;;;;;;-146.25;100.00;52433.06;2104757;28;20174;-71
2023/03/07 00:52:32;;;;;;;36.50;21.02;;;;;;;-146.25;100.00;52435.09;2104206;28;20098;-70
2023/03/07 00:53:35;;;;;;;39.65;21.58;;;;;;;-146.25;100.00;52406.72;2104845;28;20079;-71
2023/03/07 00:54:37;;;;;;;40.45;21.95;;;;;;;-146.25;100.00;52441.19;2096397;28;20104;-71
2023/03/07 00:55:39;;;;;;;35.67;20.75;;;;;;;-146.25;100.00;52459.44;2088190;28;20045;-71
2023/03/07 00:56:41;;;;;;;36.35;19.90;;;;;;;-146.25;100.00;52449.31;2088134;28;20049;-71
2023/03/07 00:57:43;;;;;;;39.95;21.15;;;;;;;-146.25;100.00;52455.38;2088696;28;20041;-71
2023/03/07 00:58:46;;;;;;;37.42;21.13;;;;;;;-146.25;100.00;52424.97;2096226;28;20056;-71
2023/03/07 00:59:47;;;;;;;38.35;20.77;;;;;;;-146.25;100.00;52439.16;2096516;28;20033;-71
2023/03/07 01:00:49;;;;;;;36.33;19.95;;;;;;;-146.25;100.00;52433.06;2087918;28;20034;-71
2023/03/07 01:01:51;;;;;;;35.17;20.02;;;;;;;-146.25;100.00;52437.13;2088570;28;20045;-71
2023/03/07 01:03:00;;;;;;;36.63;20.02;;;;;;;-146.25;100.00;52424.97;2087925;28;20152;-71
2023/03/07 01:04:02;;;;;;;33.97;19.70;;;;;;;-146.25;100.00;52443.22;2097548;28;25335;-72
2023/03/07 01:05:05;;;;;;;35.53;19.95;;;;;;;-146.25;100.00;52459.44;2104459;28;20052;-71
2023/03/07 01:06:12;;;;;;;35.75;20.38;;;;;;;-146.25;100.00;52410.78;2105097;28;20498;-71
2023/03/07 01:07:16;;;;;;;36.65;19.83;;;;;;;-146.25;100.00;52424.97;2096046;28;20783;-71
2023/03/07 01:08:20;;;;;;;34.67;18.75;;;;;;;-146.25;100.00;52420.91;2088838;28;20073;-71
2023/03/07 01:09:22;;;;;;;36.80;19.52;;;;;;;-146.25;100.00;52451.31;2088144;28;20131;-71
2023/03/07 01:10:26;;;;;;;35.53;19.83;;;;;;;-146.25;100.00;52441.19;2096424;28;20041;-71
2023/03/07 01:11:30;;;;;;;35.15;19.25;;;;;;;-146.25;100.00;52422.94;2104235;28;20059;-71
2023/03/07 01:12:32;;;;;;;32.55;18.58;;;;;;;-146.25;100.00;52406.72;2088285;28;20930;-71
2023/03/07 01:13:35;;;;;;;31.77;18.17;;;;;;;-146.25;100.00;52435.09;2096442;28;20933;-71
2023/03/07 01:14:36;;;;;;;31.92;18.45;;;;;;;-146.25;100.00;52427.00;2105000;28;20163;-71
2023/03/07 01:15:39;;;;;;;30.65;18.17;;;;;;;-146.25;100.00;52439.16;2104274;28;21032;-71
2023/03/07 01:16:41;;;;;;;33.70;17.90;;;;;;;-146.25;100.00;52457.41;2104641;28;20052;-71
2023/03/07 01:17:43;;;;;;;30.60;17.83;;;;;;;-146.25;100.00;52447.28;2105167;28;20859;-71
2023/03/07 01:18:51;;;;;;;33.20;18.27;;;;;;;-146.25;100.00;52487.81;2104845;28;32082;-72
2023/03/07 01:19:55;;;;;;;30.90;16.42;;;;;;;-146.25;100.00;52414.84;2087281;28;20498;-71
2023/03/07 01:20:57;;;;;;;32.20;18.05;;;;;;;-146.25;100.00;52431.06;2080991;28;20902;-71
2023/03/07 01:22:00;;;;;;;31.83;17.08;;;;;;;-146.25;100.00;52431.06;2087790;28;20227;-71
2023/03/07 01:23:04;;;;;;;33.40;17.30;;;;;;;-146.25;100.00;52463.50;2096736;28;20037;-70
2023/03/07 01:24:11;;;;;;;28.05;17.00;;;;;;;-146.25;100.00;52433.06;2105288;28;20109;-71
2023/03/07 01:25:13;;;;;;;30.23;16.08;;;;;;;-146.25;100.00;52435.09;2105313;28;20044;-72
2023/03/07 01:26:20;;;;;;;31.85;17.20;;;;;;;-146.25;100.00;52465.53;2104608;28;20118;-72
2023/03/07 01:27:24;;;;;;;30.08;16.85;;;;;;;-146.25;100.00;52437.13;2104921;28;20037;-71
2023/03/07 01:28:26;;;;;;;27.63;15.82;;;;;;;-146.25;100.00;52439.16;2096345;28;20053;-71
2023/03/07 01:29:32;;;;;;;28.23;14.98;;;;;;;-146.25;100.00;52469.56;2088106;28;20038;-70
2023/03/07 01:30:34;;;;;;;26.60;14.88;;;;;;;-146.25;100.00;52429.03;2088466;28;20053;-71
2023/03/07 01:31:36;;;;;;;26.95;15.32;;;;;;;-146.25;100.00;52443.22;2088287;28;20046;-70
2023/03/07 01:32:38;;;;;;;28.05;14.48;;;;;;;-146.25;100.00;52437.13;2087607;28;20806;-71
2023/03/07 01:33:41;;;;;;;25.85;14.05;;;;;;;-146.25;100.00;52414.84;2087974;28;20203;-71
2023/03/07 01:34:43;;;;;;;27.42;15.05;;;;;;;-146.25;100.00;52447.28;2095989;28;20072;-71
2023/03/07 01:35:45;;;;;;;27.00;14.63;;;;;;;-146.25;100.00;52441.19;2096327;28;20130;-71
2023/03/07 01:36:47;;;;;;;25.55;14.45;;;;;;;-146.25;100.00;52475.66;2095846;28;24033;-71
2023/03/07 01:37:51;;;;;;;26.88;14.55;;;;;;;-146.25;100.00;52447.28;2096250;28;20048;-71
2023/03/07 01:38:55;;;;;;;23.67;14.35;;;;;;;-146.25;100.00;52459.44;2088022;28;20188;-71
2023/03/07 01:39:57;;;;;;;24.17;13.70;;;;;;;-146.25;100.00;52459.44;2096667;28;20770;-71
2023/03/07 01:41:01;;;;;;;25.08;14.00;;;;;;;-146.25;100.00;52429.03;2104511;28;39524;-71
2023/03/07 01:42:03;;;;;;;25.27;14.93;;;;;;;-146.25;100.00;52422.94;2096084;28;22436;-71
2023/03/07 01:43:29;;;;;;;22.73;13.63;;;;;;;-146.25;100.00;52457.41;2095849;28;20044;-71
2023/03/07 01:45:04;;;;;;;25.73;13.88;;;;;;;-146.25;100.00;52463.50;2096074;28;20141;-72
2023/03/07 01:46:37;;;;;;;21.98;12.65;;;;;;;-146.25;100.00;52457.41;2096291;28;20911;-71
2023/03/07 01:47:42;;;;;;;21.55;12.55;;;;;;;-146.25;100.00;52435.09;2091011;28;27777;-71
2023/03/07 01:48:52;;;;;;;25.00;13.88;;;;;;;-146.25;100.00;52455.38;2099854;28;20117;-72
2023/03/07 01:49:56;;;;;;;25.60;12.88;;;;;;;-146.25;100.00;52435.09;2087357;28;21015;-71
2023/03/07 01:50:58;;;;;;;23.35;11.63;;;;;;;-146.25;100.00;52461.47;2072990;28;20046;-71
2023/03/07 01:52:05;;;;;;;23.23;13.63;;;;;;;-146.25;100.00;52396.59;2088548;28;20879;-72
2023/03/07 01:53:10;;;;;;;22.23;12.82;;;;;;;-146.25;100.00;52441.19;2095443;28;20049;-71
2023/03/07 01:54:17;;;;;;;23.77;13.15;;;;;;;-146.25;100.00;52477.69;2080019;28;20104;-72
2023/03/07 01:55:25;;;;;;;21.25;12.40;;;;;;;-146.25;100.00;52463.50;2089606;28;20041;-72
2023/03/07 01:56:32;;;;;;;22.35;12.43;;;;;;;-146.25;100.00;52410.78;2087588;28;20091;-72
2023/03/07 01:57:41;;;;;;;22.73;12.77;;;;;;;-146.25;100.00;52477.69;2080495;28;30628;-72
2023/03/07 01:58:45;;;;;;;21.13;12.27;;;;;;;-146.25;100.00;52457.41;2081994;28;20204;-72
2023/03/07 01:59:53;;;;;;;20.98;12.63;;;;;;;-146.25;100.00;52433.06;2096148;28;23803;-71
2023/03/07 02:00:55;;;;;;;21.35;11.85;;;;;;;-146.25;100.00;52447.28;2087682;28;20930;-71
2023/03/07 02:02:03;;;;;;;21.83;11.80;;;;;;;-146.25;100.00;52467.56;2088512;28;20041;-71
2023/03/07 02:03:24;;;;;;;22.58;11.93;;;;;;;-146.25;100.00;52453.34;2087525;28;20038;-71
2023/03/07 02:05:10;;;;;;;17.80;10.10;;;;;;;-146.25;100.00;52435.09;2082945;28;20115;-71
2023/03/07 02:06:12;;;;;;;21.50;11.00;;;;;;;-146.25;100.00;52467.56;2090493;28;20049;-71
2023/03/07 02:07:16;;;;;;;18.60;10.18;;;;;;;-146.25;100.00;52449.31;2096044;28;20044;-71
2023/03/07 02:08:23;;;;;;;20.75;10.63;;;;;;;-146.25;100.00;52412.81;2095650;28;20041;-71
2023/03/07 02:09:26;;;;;;;19.52;10.13;;;;;;;-146.25;100.00;52433.06;2088259;28;20912;-71
2023/03/07 02:10:29;;;;;;;18.27;9.52;;;;;;;-146.25;100.00;52416.84;2087834;28;20038;-71
2023/03/07 02:11:36;;;;;;;15.98;9.27;;;;;;;-146.25;100.00;52461.47;2088332;28;20212;-71
2023/03/07 02:12:40;;;;;;;17.17;9.20;;;;;;;-146.25;100.00;52449.31;2088444;28;20056;-71
2023/03/07 02:13:42;;;;;;;17.02;9.30;;;;;;;-146.25;100.00;52449.31;2079879;28;20989;-71
2023/03/07 02:14:48;;;;;;;16.13;9.40;;;;;;;-146.25;100.00;52465.53;2080141;28;20128;-70
2023/03/07 02:15:50;;;;;;;15.02;8.48;;;;;;;-146.25;100.00;52467.56;2079833;28;20053;-70
2023/03/07 02:16:53;;;;;;;16.30;8.60;;;;;;;-146.25;100.00;52465.53;2080975;28;20050;-70
2023/03/07 02:17:57;;;;;;;14.77;8.40;;;;;;;-146.25;100.00;52414.84;2096098;28;20049;-71
2023/03/07 02:19:00;;;;;;;12.43;7.72;;;;;;;-146.25;100.00;52467.56;2079378;28;20057;-71
2023/03/07 02:20:42;;;;;;;14.52;7.32;;;;;;;-146.25;100.00;52451.31;2079885;28;20038;-71
2023/03/07 02:22:13;;;;;;;13.52;6.85;;;;;;;-146.25;100.00;52457.41;2079275;28;20954;-71
2023/03/07 02:23:47;;;;;;;11.70;6.60;;;;;;;-146.25;100.00;52457.41;2083513;28;20034;-70
2023/03/07 02:25:10;;;;;;;12.73;6.30;;;;;;;-146.25;100.00;52420.91;2080683;28;20041;-70
2023/03/07 02:26:29;;;;;;;10.38;5.82;;;;;;;-146.25;100.00;52445.25;2088387;28;29454;-70
2023/03/07 02:27:35;;;;;;;11.35;5.47;;;;;;;-146.25;100.00;52467.56;2087874;28;20049;-70
2023/03/07 02:28:41;;;;;;;10.00;5.72;;;;;;;-146.25;100.00;52429.03;2079782;28;20053;-70
2023/03/07 02:29:46;;;;;;;8.65;5.10;;;;;;;-146.25;100.00;52477.69;2080119;28;20046;-70
2023/03/07 02:31:04;;;;;;;14.30;5.50;;;;;;;-146.25;100.00;52404.69;2088009;28;20034;-70
2023/03/07 02:32:08;;;;;;;10.35;5.57;;;;;;;-146.25;100.00;52461.47;2087661;28;20838;-70
2023/03/07 02:33:10;;;;;;;13.10;5.18;;;;;;;-146.25;100.00;52431.06;2079230;28;28575;-70
2023/03/07 02:34:21;;;;;;;11.15;5.50;;;;;;;-146.25;100.00;52427.00;2089471;28;20034;-71
2023/03/07 02:35:27;;;;;;;8.95;4.88;;;;;;;-146.25;100.00;52429.03;2088756;28;20108;-70
2023/03/07 02:36:35;;;;;;;11.82;4.78;;;;;;;-146.25;100.00;52469.56;2089090;28;20037;-71
2023/03/07 02:37:55;;;;;;;10.05;4.43;;;;;;;-146.25;100.00;52433.06;2080730;28;20038;-71
2023/03/07 02:39:01;;;;;;;8.15;4.68;;;;;;;-146.25;100.00;52431.06;2068350;28;20105;-71
2023/03/07 02:40:09;;;;;;;8.23;3.97;;;;;;;-146.25;100.00;52420.91;2081397;28;22271;-71
2023/03/07 02:41:13;;;;;;;7.82;4.00;;;;;;;-146.25;100.00;52453.34;2089158;28;20046;-71
2023/03/07 02:42:21;;;;;;;8.32;3.92;;;;;;;-146.25;100.00;52414.84;2088224;28;20045;-71
2023/03/07 02:43:32;;;;;;;11.40;3.95;;;;;;;-146.25;100.00;52437.13;2082539;28;20038;-71
2023/03/07 02:44:34;;;;;;;9.65;4.07;;;;;;;-146.25;100.00;52451.31;2089470;28;21002;-71
2023/03/07 02:45:36;;;;;;;8.93;4.10;;;;;;;-146.25;100.00;52445.25;2105125;28;20047;-71
2023/03/07 02:46:38;;;;;;;7.80;3.90;;;;;;;-146.25;100.00;52392.53;2105976;28;20174;-71
2023/03/07 02:47:44;;;;;;;6.05;3.38;;;;;;;-146.25;100.00;52439.16;2088755;28;20179;-71
2023/03/07 02:48:51;;;;;;;6.72;3.67;;;;;;;-146.25;100.00;52447.28;2088992;28;20052;-70
2023/03/07 02:49:56;;;;;;;7.53;3.63;;;;;;;-146.25;100.00;52445.25;2088828;28;20176;-71
2023/03/07 02:50:58;;;;;;;8.32;3.33;;;;;;;-146.25;100.00;52477.69;2097531;28;20037;-70
2023/03/07 02:52:01;;;;;;;7.40;3.00;;;;;;;-146.25;100.00;52422.94;2097086;28;20039;-71
2023/03/07 02:53:04;;;;;;;6.85;3.20;;;;;;;-146.25;100.00;52449.31;2088553;28;20048;-70
2023/03/07 02:54:07;;;;;;;7.13;3.08;;;;;;;-146.25;100.00;52420.91;2088471;28;32643;-71
2023/03/07 02:55:10;;;;;;;5.88;2.88;;;;;;;-146.25;100.00;52412.81;2097338;28;20038;-70
2023/03/07 02:56:16;;;;;;;7.00;3.00;;;;;;;-146.25;100.00;52457.41;2097920;28;20026;-70
2023/03/07 02:57:18;;;;;;;7.45;2.83;;;;;;;-146.25;100.00;52441.19;2097356;28;20925;-71
2023/03/07 02:58:20;;;;;;;6.55;2.83;;;;;;;-146.25;100.00;52445.25;2097490;28;20932;-70
2023/03/07 02:59:25;;;;;;;5.22;2.55;;;;;;;-146.25;100.00;52465.53;2106080;28;20902;-70
2023/03/07 03:00:27;;;;;;;7.82;2.55;;;;;;;-146.25;100.00;52445.25;2097956;28;20100;-70
2023/03/07 03:01:29;;;;;;;7.85;2.47;;;;;;;-146.25;100.00;52453.34;2105911;28;20079;-71
2023/03/07 03:02:34;;;;;;;6.97;2.40;;;;;;;-146.25;100.00;52445.25;2105871;28;20141;-70
2023/03/07 03:03:36;;;;;;;7.72;2.28;;;;;;;-146.25;100.00;52447.28;2114112;28;30366;-70
2023/03/07 03:04:37;;;;;;;8.82;2.45;;;;;;;-146.25;100.00;52424.97;2114495;28;28224;-70
2023/03/07 03:05:39;;;;;;;6.65;2.17;;;;;;;-146.25;100.00;52424.97;2105034;28;29586;-70
2023/03/07 03:06:44;;;;;;;4.50;2.17;;;;;;;-146.25;100.00;52431.06;2105222;28;20959;-70
2023/03/07 03:07:47;;;;;;;6.80;2.05;;;;;;;-146.25;100.00;52422.94;2113905;28;20849;-71
2023/03/07 03:08:49;;;;;;;5.00;1.90;;;;;;;-146.25;100.00;52453.34;2113384;28;20914;-70
2023/03/07 03:09:51;;;;;;;5.97;2.00;;;;;;;-146.25;100.00;52459.44;2104829;28;20886;-70
2023/03/07 03:10:54;;;;;;;8.63;2.10;;;;;;;-146.25;100.00;52457.41;2104874;28;27882;-70
2023/03/07 03:11:59;;;;;;;7.53;1.90;;;;;;;-146.25;100.00;52465.53;2097268;28;20041;-70
2023/03/07 03:13:04;;;;;;;6.47;1.55;;;;;;;-146.25;100.00;52435.09;2090460;28;20044;-71
2023/03/07 03:14:05;;;;;;;4.72;1.50;;;;;;;-146.25;100.00;52455.38;2097219;28;20057;-70
2023/03/07 03:15:08;;;;;;;4.97;1.35;;;;;;;-146.25;100.00;52461.47;2089042;28;20981;-71
2023/03/07 03:16:10;;;;;;;7.38;1.50;;;;;;;-146.25;100.00;52414.84;2095745;28;20057;-70
2023/03/07 03:17:13;;;;;;;6.05;1.48;;;;;;;-146.25;100.00;52457.41;2088769;28;20100;-70
2023/03/07 03:18:16;;;;;;;5.25;1.33;;;;;;;-146.25;100.00;52453.34;2088694;28;20412;-70
2023/03/07 03:19:18;;;;;;;4.60;1.40;;;;;;;-146.25;100.00;52455.38;2097245;28;20052;-70
2023/03/07 03:20:21;;;;;;;6.93;1.35;;;;;;;-146.25;100.00;52459.44;2105164;28;20107;-70
2023/03/07 03:21:23;;;;;;;6.68;1.33;;;;;;;-146.25;100.00;52455.38;2097172;28;20048;-70
2023/03/07 03:22:24;;;;;;;4.03;0.98;;;;;;;-146.25;100.00;52433.06;2088963;28;20278;-70
2023/03/07 03:23:27;;;;;;;8.20;1.35;;;;;;;-146.25;100.00;52439.16;2097308;28;20037;-70
2023/03/07 03:24:31;;;;;;;5.13;0.90;;;;;;;-146.25;100.00;52420.91;2096898;28;20057;-70
2023/03/07 03:25:37;;;;;;;7.05;1.02;;;;;;;-146.25;100.00;52463.50;2097368;28;20041;-70
2023/03/07 03:26:40;;;;;;;6.80;1.38;;;;;;;-146.25;100.00;52473.63;2096968;28;20037;-70
2023/03/07 03:27:43;;;;;;;4.32;1.15;;;;;;;-146.25;100.00;52437.13;2080687;28;20042;-70
2023/03/07 03:28:45;;;;;;;5.43;1.20;;;;;;;-146.25;100.00;52427.00;2089479;28;20160;-71
2023/03/07 03:29:48;;;;;;;8.18;0.93;;;;;;;-146.25;100.00;52388.47;2105218;28;20879;-70
2023/03/07 03:31:03;;;;;;;5.38;1.20;;;;;;;-146.25;100.00;52437.13;2096888;28;20067;-70
2023/03/07 03:32:06;;;;;;;7.72;1.23;;;;;;;-146.25;100.00;52439.16;2096746;28;20041;-71
2023/03/07 03:33:10;;;;;;;7.43;1.20;;;;;;;-146.25;100.00;52495.94;2088600;28;20099;-70
2023/03/07 03:34:12;;;;;;;7.05;1.55;;;;;;;-146.25;100.00;52441.19;2088843;28;20097;-70
2023/03/07 03:35:14;;;;;;;6.45;1.00;;;;;;;-146.25;100.00;52459.44;2096528;28;20846;-70
2023/03/07 03:36:17;;;;;;;9.63;1.45;;;;;;;-146.25;100.00;52449.31;2097774;28;20048;-70
2023/03/07 03:37:22;;;;;;;6.60;1.05;;;;;;;-146.25;100.00;52451.31;2080914;28;20046;-70
2023/03/07 03:38:25;;;;;;;8.38;1.25;;;;;;;-146.25;100.00;52455.38;2089395;28;20042;-70
2023/03/07 03:39:29;;;;;;;7.30;1.20;;;;;;;-146.25;100.00;52477.69;2088744;28;20041;-70
2023/03/07 03:40:32;;;;;;;4.85;1.20;;;;;;;-146.25;100.00;52437.13;2097446;28;20052;-70
2023/03/07 03:41:34;;;;;;;7.22;1.30;;;;;;;-146.25;100.00;52453.34;2096651;28;20134;-70
2023/03/07 03:42:36;;;;;;;7.93;1.05;;;;;;;-146.25;100.00;52441.19;2088522;28;20045;-70
2023/03/07 03:43:38;;;;;;;7.38;1.10;;;;;;;-146.25;100.00;52441.19;2097140;28;20051;-70
2023/03/07 03:44:40;;;;;;;10.05;1.27;;;;;;;-146.25;100.00;52429.03;2095976;28;20034;-71
2023/03/07 03:45:42;;;;;;;6.55;1.27;;;;;;;-146.25;100.00;52457.41;2095904;28;25986;-70
2023/03/07 03:46:47;;;;;;;10.80;1.35;;;;;;;-146.25;100.00;52435.09;2096917;28;20926;-70
2023/03/07 03:47:51;;;;;;;6.20;1.02;;;;;;;-146.25;100.00;52449.31;2088897;28;20139;-70
2023/03/07 03:48:54;;;;;;;9.60;1.10;;;;;;;-146.25;100.00;52465.53;2088416;28;20076;-70
2023/03/07 03:49:58;;;;;;;8.45;1.23;;;;;;;-146.25;100.00;52427.00;2089038;28;20058;-70
2023/03/07 03:51:10;;;;;;;8.60;1.15;;;;;;;-146.25;100.00;52453.34;2096817;28;20045;-70
2023/03/07 03:52:11;;;;;;;3.75;1.05;;;;;;;-146.25;100.00;52420.91;2104972;28;21069;-70
2023/03/07 03:53:13;;;;;;;7.10;1.00;;;;;;;-146.25;100.00;52408.75;2096796;28;20045;-70
2023/03/07 03:54:17;;;;;;;8.65;0.95;;;;;;;-146.25;100.00;52451.31;2096346;28;20147;-70
2023/03/07 03:55:19;;;;;;;10.48;0.80;;;;;;;-146.25;100.00;52431.06;2088743;28;27554;-69
2023/03/07 03:56:22;;;;;;;8.73;0.93;;;;;;;-146.25;100.00;52427.00;2088446;28;20049;-70
2023/03/07 03:57:24;;;;;;;7.70;1.20;;;;;;;-146.25;100.00;52429.03;2097178;28;20851;-70
2023/03/07 03:58:26;;;;;;;5.82;0.90;;;;;;;-146.25;100.00;52402.66;2105678;28;20383;-70
2023/03/07 03:59:28;;;;;;;6.82;0.82;;;;;;;-146.25;100.00;52420.91;2097068;28;20914;-70
2023/03/07 04:00:32;;;;;;;6.93;0.90;;;;;;;-146.25;100.00;52390.50;2096425;28;20040;-70
2023/03/07 04:01:34;;;;;;;7.68;0.98;;;;;;;-146.25;100.00;52455.38;2097297;28;20034;-71
2023/03/07 04:02:36;;;;;;;9.70;1.50;;;;;;;-146.25;100.00;52445.25;2096476;28;20080;-70
2023/03/07 04:03:41;;;;;;;3.90;0.70;;;;;;;-146.25;100.00;52427.00;2097088;28;20183;-70
2023/03/07 04:04:43;;;;;;;9.38;1.13;;;;;;;-146.25;100.00;52445.25;2096494;28;20053;-70
2023/03/07 04:05:48;;;;;;;8.02;0.90;;;;;;;-146.25;100.00;52469.56;2096899;28;20041;-70
2023/03/07 04:06:49;;;;;;;10.48;1.02;;;;;;;-146.25;100.00;52422.94;2088800;28;20038;-70
2023/03/07 04:07:52;;;;;;;10.25;0.95;;;;;;;-146.25;100.00;52451.31;2089062;28;20045;-70
2023/03/07 04:08:58;;;;;;;6.28;0.95;;;;;;;-146.25;100.00;52469.56;2097108;28;20045;-70
2023/03/07 04:10:00;;;;;;;4.43;0.70;;;;;;;-146.25;100.00;52495.94;2096925;28;20053;-70
2023/03/07 04:11:03;;;;;;;6.20;0.98;;;;;;;-146.25;100.00;52445.25;2088138;28;20168;-70
2023/03/07 04:12:05;;;;;;;11.70;0.90;;;;;;;-146.25;100.00;52465.53;2088859;28;20033;-70
2023/03/07 04:13:07;;;;;;;7.30;0.70;;;;;;;-146.25;100.00;52449.31;2088064;28;20042;-70
2023/03/07 04:14:10;;;;;;;8.05;0.77;;;;;;;-146.25;100.00;52467.56;2096789;28;20056;-70
2023/03/07 04:15:11;;;;;;;6.05;0.88;;;;;;;-146.25;100.00;52457.41;2087940;28;20903;-70
2023/03/07 04:16:14;;;;;;;10.18;1.25;;;;;;;-146.25;100.00;52453.34;2088580;28;20649;-70
2023/03/07 04:17:15;;;;;;;12.15;0.93;;;;;;;-146.25;100.00;52441.19;2096418;28;20587;-69
2023/03/07 04:18:18;;;;;;;7.65;0.88;;;;;;;-146.25;100.00;52463.50;2096747;28;20048;-70
2023/03/07 04:19:22;;;;;;;8.38;1.05;;;;;;;-146.25;100.00;52463.50;2095617;28;20037;-70
2023/03/07 04:20:24;;;;;;;7.35;0.70;;;;;;;-146.25;100.00;52510.13;2088734;28;20042;-70
2023/03/07 04:21:26;;;;;;;10.35;0.60;;;;;;;-146.25;100.00;52451.31;2095966;28;28465;-70
2023/03/07 04:22:30;;;;;;;7.78;1.00;;;;;;;-146.25;100.00;52445.25;2097389;28;20032;-70
2023/03/07 04:23:33;;;;;;;8.60;1.00;;;;;;;-146.25;100.00;52437.13;2104703;28;21010;-69
2023/03/07 04:24:35;;;;;;;13.25;1.05;;;;;;;-146.25;100.00;52424.97;2096531;28;20041;-70
2023/03/07 04:25:37;;;;;;;6.07;0.65;;;;;;;-146.25;100.00;52429.03;2104401;28;20167;-70
2023/03/07 04:26:38;;;;;;;8.48;1.08;;;;;;;-146.25;100.00;52457.41;2104869;28;20880;-70
2023/03/07 04:27:40;;;;;;;6.53;0.95;;;;;;;-146.25;100.00;52420.91;2105297;28;20029;-70
2023/03/07 04:28:45;;;;;;;8.63;0.80;;;;;;;-146.25;100.00;52441.19;2104771;28;20779;-70
2023/03/07 04:29:51;;;;;;;5.25;0.70;;;;;;;-146.25;100.00;52443.22;2106481;28;20057;-69
2023/03/07 04:30:57;;;;;;;6.90;0.70;;;;;;;-146.25;100.00;52424.97;2114484;28;20040;-70
2023/03/07 04:32:00;;;;;;;6.07;0.85;;;;;;;-146.25;100.00;52481.75;2104681;28;20167;-70
2023/03/07 04:33:02;;;;;;;6.90;0.70;;;;;;;-146.25;100.00;52420.91;2105085;28;20044;-70
2023/03/07 04:34:04;;;;;;;9.75;0.80;;;;;;;-146.25;100.00;52418.88;2104947;28;20145;-70
2023/03/07 04:35:06;;;;;;;7.82;0.60;;;;;;;-146.25;100.00;52429.03;2096688;28;20049;-70
2023/03/07 04:36:09;;;;;;;10.63;0.55;;;;;;;-146.25;100.00;52467.56;2105364;28;20135;-70
2023/03/07 04:37:11;;;;;;;9.25;0.52;;;;;;;-146.25;100.00;52439.16;2104501;28;20070;-70
2023/03/07 04:38:14;;;;;;;7.00;0.40;;;;;;;-146.25;100.00;52479.72;2104858;28;26031;-70
2023/03/07 04:39:16;;;;;;;4.45;0.68;;;;;;;-146.25;100.00;52441.19;2113178;28;20044;-70
2023/03/07 04:40:19;;;;;;;5.75;0.90;;;;;;;-146.25;100.00;52435.09;2113413;28;20071;-70
2023/03/07 04:41:26;;;;;;;11.25;0.70;;;;;;;-146.25;100.00;52471.59;2105084;28;20566;-70
2023/03/07 04:42:32;;;;;;;4.63;0.43;;;;;;;-146.25;100.00;52457.41;2106260;28;20044;-70
2023/03/07 04:43:34;;;;;;;8.30;0.60;;;;;;;-146.25;100.00;52431.06;2113307;28;21667;-70
2023/03/07 04:44:36;;;;;;;15.10;0.90;;;;;;;-146.25;100.00;52439.16;2104070;28;33633;-70
2023/03/07 04:45:37;;;;;;;13.43;0.60;;;;;;;-146.25;100.00;52461.47;2096662;28;20045;-70
2023/03/07 04:46:41;;;;;;;10.35;0.93;;;;;;;-146.25;100.00;52487.81;2096568;28;20033;-70
2023/03/07 04:47:43;;;;;;;8.55;0.75;;;;;;;-146.25;100.00;52453.34;2105193;28;20047;-70
2023/03/07 04:48:46;;;;;;;8.30;0.60;;;;;;;-146.25;100.00;52427.00;2113339;28;20040;-70
2023/03/07 04:49:48;;;;;;;8.52;0.50;;;;;;;-146.25;100.00;52481.75;2113245;28;20047;-70
2023/03/07 04:50:51;;;;;;;6.78;0.50;;;;;;;-146.25;100.00;52447.28;2113702;28;20480;-70